Station History

Weather Underground - logo

Station Historical Data
Daily Summary for February 5, 2018 Units:  English    Metric   Both
« Previous Day
Next Day »
Daily Weekly Monthly Yearly Custom
  High: Low: Average:
Temperature: 73.3 °F 43.7 °F 59.6 °F
Dew Point: 55.6 °F 42.1 °F 50.7 °F
Humidity: 96 % 49 % 74 %
Wind Speed: 4.6 mph 0.0 mph 0.6 mph
Wind Gust: 4.6 mph - -
Wind:- - West
Pressure: 30.08 in 29.94 in -
Precipitation: 0.00 in    
Historical Graphs
 
 
Tabular Data for February 5, 2018
Time Temperature Dew Point Pressure Wind Wind Speed Wind Gust Humidity Rainfall Rate (Hourly)
00:02 50.6 °F 47.2 °F 30.07 in Calm     88 % 0.00 in
00:07 49.9 °F 46.5 °F 30.07 in Calm     88 % 0.00 in
00:12 49.4 °F 46.3 °F 30.07 in Calm     89 % 0.00 in
00:17 49.2 °F 46.4 °F 30.07 in Calm     90 % 0.00 in
00:22 49.0 °F 46.2 °F 30.07 in Calm     90 % 0.00 in
00:27 48.7 °F 45.9 °F 30.07 in Calm     90 % 0.00 in
00:32 48.4 °F 45.6 °F 30.07 in Calm     90 % 0.00 in
00:37 48.3 °F 45.8 °F 30.07 in Calm     91 % 0.00 in
00:42 48.1 °F 45.3 °F 30.07 in Calm     90 % 0.00 in
00:47 47.9 °F 45.1 °F 30.07 in Calm     90 % 0.00 in
00:52 47.6 °F 44.8 °F 30.06 in Calm     90 % 0.00 in
00:57 47.4 °F 44.9 °F 30.07 in Calm     91 % 0.00 in
01:02 47.3 °F 44.8 °F 30.06 in Calm     91 % 0.00 in
01:07 47.3 °F 45.1 °F 30.06 in Calm     92 % 0.00 in
01:12 47.3 °F 45.1 °F 30.06 in Calm     92 % 0.00 in
01:17 47.3 °F 45.1 °F 30.07 in Calm     92 % 0.00 in
01:22 47.5 °F 45.3 °F 30.07 in Calm     92 % 0.00 in
01:27 47.6 °F 45.4 °F 30.07 in Calm     92 % 0.00 in
01:32 47.6 °F 45.4 °F 30.07 in Calm     92 % 0.00 in
06:02 46.2 °F 44.8 °F 30.05 in Calm     95 % 0.00 in
06:07 45.8 °F 44.2 °F 30.05 in Calm     94 % 0.00 in
06:12 45.5 °F 43.9 °F 30.05 in Calm     94 % 0.00 in
06:17 45.3 °F 43.7 °F 30.06 in Calm     94 % 0.00 in
06:22 45.1 °F 43.5 °F 30.06 in Calm     94 % 0.00 in
06:27 44.4 °F 42.5 °F 30.06 in Calm     93 % 0.00 in
06:32 44.1 °F 42.2 °F 30.06 in Calm     93 % 0.00 in
06:37 44.1 °F 42.5 °F 30.07 in Calm     94 % 0.00 in
06:42 44.0 °F 42.4 °F 30.07 in Calm     94 % 0.00 in
06:47 43.9 °F 42.3 °F 30.07 in Calm     94 % 0.00 in
06:52 43.7 °F 42.1 °F 30.07 in Calm     94 % 0.00 in
06:57 43.7 °F 42.1 °F 30.07 in Calm     94 % 0.00 in
07:02 43.7 °F 42.1 °F 30.07 in Calm     94 % 0.00 in
07:07 43.7 °F 42.1 °F 30.07 in Calm     94 % 0.00 in
07:12 43.9 °F 42.6 °F 30.07 in Calm     95 % 0.00 in
07:17 44.0 °F 42.7 °F 30.07 in Calm     95 % 0.00 in
07:22 44.0 °F 42.7 °F 30.07 in Calm     95 % 0.00 in
07:27 44.0 °F 42.7 °F 30.08 in Calm     95 % 0.00 in
07:32 44.4 °F 43.1 °F 30.08 in Calm     95 % 0.00 in
07:37 44.7 °F 43.4 °F 30.08 in Calm     95 % 0.00 in
07:43 45.1 °F 43.8 °F 30.08 in Calm     95 % 0.00 in
07:48 45.6 °F 44.3 °F 30.07 in Calm     95 % 0.00 in
07:53 46.3 °F 45.2 °F 30.07 in Calm     96 % 0.00 in
07:58 46.9 °F 45.8 °F 30.07 in Calm     96 % 0.00 in
08:03 47.6 °F 46.5 °F 30.07 in Calm     96 % 0.00 in
08:08 48.3 °F 46.9 °F 30.07 in Calm     95 % 0.00 in
08:13 49.1 °F 47.4 °F 30.07 in Calm     94 % 0.00 in
08:18 49.8 °F 47.9 °F 30.07 in Calm     93 % 0.00 in
08:23 50.6 °F 48.4 °F 30.07 in Calm     92 % 0.00 in
08:28 51.5 °F 49.0 °F 30.07 in Calm     91 % 0.00 in
08:33 52.2 °F 49.4 °F 30.07 in Calm     90 % 0.00 in
08:38 53.5 °F 50.3 °F 30.07 in Calm     89 % 0.00 in
08:43 54.7 °F 50.9 °F 30.07 in Calm     87 % 0.00 in
08:48 55.9 °F 51.5 °F 30.07 in Calm     85 % 0.00 in
08:53 57.2 °F 52.1 °F 30.07 in Calm     83 % 0.00 in
08:58 58.0 °F 52.5 °F 30.07 in Calm     82 % 0.00 in
09:03 58.6 °F 52.8 °F 30.07 in Calm     81 % 0.00 in
09:08 58.9 °F 53.1 °F 30.07 in Calm     81 % 0.00 in
09:13 58.7 °F 52.2 °F 30.07 in Calm     79 % 0.00 in
09:18 59.1 °F 52.6 °F 30.07 in Calm     79 % 0.00 in
09:23 59.3 °F 52.8 °F 30.07 in SSE 1.2 mph 1.2 mph 79 % 0.00 in
09:28 59.7 °F 52.8 °F 30.07 in South 1.2 mph 1.2 mph 78 % 0.00 in
09:33 60.1 °F 52.9 °F 30.06 in SE 1.2 mph   77 % 0.00 in
09:38 60.5 °F 52.9 °F 30.06 in Calm     76 % 0.00 in
09:43 60.6 °F 52.6 °F 30.07 in Calm     75 % 0.00 in
09:48 61.2 °F 52.8 °F 30.06 in SE 1.2 mph   74 % 0.00 in
09:53 61.4 °F 52.3 °F 30.06 in Calm     72 % 0.00 in
09:58 61.4 °F 52.7 °F 30.07 in Calm     73 % 0.00 in
10:03 61.9 °F 53.1 °F 30.06 in Calm     73 % 0.00 in
10:08 62.9 °F 53.7 °F 30.06 in Calm     72 % 0.00 in
10:13 63.6 °F 54.0 °F 30.06 in Calm     71 % 0.00 in
10:18 64.1 °F 54.1 °F 30.07 in Calm     70 % 0.00 in
10:23 64.6 °F 54.6 °F 30.07 in Calm     70 % 0.00 in
10:28 65.0 °F 54.6 °F 30.06 in SE 1.2 mph   69 % 0.00 in
10:33 65.1 °F 54.3 °F 30.07 in South 1.2 mph 1.2 mph 68 % 0.00 in
10:38 65.4 °F 54.2 °F 30.07 in NW 1.2 mph 1.2 mph 67 % 0.00 in
10:43 65.4 °F 55.0 °F 30.07 in Calm     69 % 0.00 in
10:48 65.2 °F 54.4 °F 30.07 in WNW 2.3 mph 2.3 mph 68 % 0.00 in
10:53 64.9 °F 53.7 °F 30.07 in NW 2.3 mph 2.3 mph 67 % 0.00 in
10:58 65.0 °F 53.8 °F 30.07 in North 2.3 mph 2.3 mph 67 % 0.00 in
11:03 65.4 °F 54.2 °F 30.07 in NNW 2.3 mph 2.3 mph 67 % 0.00 in
11:08 65.4 °F 53.3 °F 30.07 in NW 3.5 mph 3.5 mph 65 % 0.00 in
11:13 65.5 °F 54.2 °F 30.07 in Calm     67 % 0.00 in
11:18 66.0 °F 53.9 °F 30.06 in NW 1.2 mph 1.2 mph 65 % 0.00 in
11:23 66.4 °F 55.1 °F 30.06 in Calm     67 % 0.00 in
11:28 67.4 °F 54.8 °F 30.06 in SSW 1.2 mph 1.2 mph 64 % 0.00 in
11:33 67.9 °F 55.3 °F 30.06 in NNW 1.2 mph   64 % 0.00 in
11:38 67.8 °F 54.3 °F 30.06 in NW 3.5 mph 3.5 mph 62 % 0.00 in
11:43 67.6 °F 54.6 °F 30.05 in Calm     63 % 0.00 in
11:48 67.9 °F 55.3 °F 30.05 in NNW 1.2 mph 1.2 mph 64 % 0.00 in
11:53 68.1 °F 55.0 °F 30.05 in NW 3.5 mph 3.5 mph 63 % 0.00 in
11:58 68.0 °F 54.5 °F 30.04 in NE 2.3 mph 2.3 mph 62 % 0.00 in
12:03 68.0 °F 54.9 °F 30.04 in Calm     63 % 0.00 in
12:08 68.6 °F 54.6 °F 30.03 in Calm     61 % 0.00 in
12:13 69.0 °F 55.0 °F 30.03 in Calm     61 % 0.00 in
12:18 69.2 °F 55.2 °F 30.03 in NW 1.2 mph 1.2 mph 61 % 0.00 in
12:23 69.3 °F 55.3 °F 30.02 in NW 1.2 mph 1.2 mph 61 % 0.00 in
12:28 69.5 °F 55.5 °F 30.02 in Calm     61 % 0.00 in
12:33 69.5 °F 54.5 °F 30.01 in WNW 1.2 mph   59 % 0.00 in
12:38 70.1 °F 55.6 °F 30.01 in Calm     60 % 0.00 in
12:43 70.3 °F 55.3 °F 30.01 in NNW 2.3 mph 2.3 mph 59 % 0.00 in
12:48 70.4 °F 54.4 °F 30.00 in NW 3.5 mph 3.5 mph 57 % 0.00 in
12:53 70.3 °F 54.3 °F 30.00 in WNW 2.3 mph 2.3 mph 57 % 0.00 in
12:58 70.3 °F 54.3 °F 30.00 in WNW 1.2 mph   57 % 0.00 in
13:03 70.7 °F 54.7 °F 30.00 in WNW 1.2 mph 1.2 mph 57 % 0.00 in
13:08 70.9 °F 54.4 °F 30.00 in Calm   0.1 mph 56 % 0.00 in
13:13 71.1 °F 55.1 °F 29.99 in Calm   0.1 mph 57 % 0.00 in
13:18 71.5 °F 55.0 °F 29.99 in NE 2.0 mph 2.0 mph 56 % 0.00 in
13:23 71.7 °F 54.7 °F 29.98 in NW 1.2 mph 1.2 mph 55 % 0.00 in
13:28 72.0 °F 53.9 °F 29.98 in NW 3.5 mph 3.5 mph 53 % 0.00 in
13:34 72.2 °F 54.6 °F 29.98 in SW 1.2 mph   54 % 0.00 in
13:39 72.6 °F 54.5 °F 29.97 in NNW 1.2 mph 1.2 mph 53 % 0.00 in
13:44 72.6 °F 54.5 °F 29.97 in NW 3.5 mph 3.5 mph 53 % 0.00 in
13:49 72.2 °F 54.1 °F 29.97 in NW 1.2 mph 1.2 mph 53 % 0.00 in
13:54 72.1 °F 54.0 °F 29.97 in SW 1.2 mph 1.2 mph 53 % 0.00 in
13:59 72.3 °F 54.2 °F 29.97 in Calm     53 % 0.00 in
14:04 72.6 °F 54.5 °F 29.97 in WNW 2.3 mph 2.3 mph 53 % 0.00 in
14:09 72.7 °F 54.1 °F 29.97 in Calm     52 % 0.00 in
14:14 73.0 °F 54.9 °F 29.96 in NE 1.2 mph   53 % 0.00 in
14:19 73.2 °F 53.4 °F 29.96 in WSW 3.5 mph 3.5 mph 50 % 0.00 in
14:24 73.1 °F 53.9 °F 29.96 in WNW 1.2 mph 1.2 mph 51 % 0.00 in
14:29 72.9 °F 53.2 °F 29.96 in NW 3.5 mph 3.5 mph 50 % 0.00 in
14:34 72.8 °F 53.1 °F 29.96 in Calm     50 % 0.00 in
14:39 72.9 °F 53.2 °F 29.95 in Calm     50 % 0.00 in
14:44 72.8 °F 53.6 °F 29.95 in Calm     51 % 0.00 in
14:49 72.9 °F 53.7 °F 29.95 in SE 1.2 mph   51 % 0.00 in
14:54 73.2 °F 52.9 °F 29.95 in WNW 1.2 mph 1.2 mph 49 % 0.00 in
14:59 73.3 °F 53.0 °F 29.95 in NW 3.5 mph 3.5 mph 49 % 0.00 in
15:04 73.0 °F 53.3 °F 29.95 in Calm   0.1 mph 50 % 0.00 in
15:09 73.1 °F 53.4 °F 29.95 in NW 2.0 mph 2.0 mph 50 % 0.00 in
15:14 73.0 °F 53.3 °F 29.95 in NW 2.3 mph 2.3 mph 50 % 0.00 in
15:19 73.0 °F 53.3 °F 29.95 in WNW 4.6 mph 4.6 mph 50 % 0.00 in
15:24 72.9 °F 53.2 °F 29.95 in NW 3.5 mph 3.5 mph 50 % 0.00 in
15:29 72.8 °F 53.1 °F 29.95 in Calm     50 % 0.00 in
15:34 72.8 °F 53.6 °F 29.95 in NW 3.5 mph 3.5 mph 51 % 0.00 in
15:39 72.7 °F 53.0 °F 29.95 in NW 2.3 mph 2.4 mph 50 % 0.00 in
15:44 72.6 °F 52.9 °F 29.94 in NNW 3.5 mph 3.5 mph 50 % 0.00 in
15:49 72.5 °F 53.3 °F 29.94 in NW 2.3 mph 2.3 mph 51 % 0.00 in
15:54 72.4 °F 53.2 °F 29.94 in NW 1.2 mph 1.2 mph 51 % 0.00 in
15:59 72.3 °F 53.7 °F 29.94 in WNW 1.0 mph 1.0 mph 52 % 0.00 in
16:04 72.2 °F 53.1 °F 29.94 in WNW 2.3 mph 2.3 mph 51 % 0.00 in
16:09 72.0 °F 53.4 °F 29.94 in NW 2.3 mph 2.3 mph 52 % 0.00 in
16:14 71.9 °F 53.3 °F 29.94 in NW 2.3 mph 2.3 mph 52 % 0.00 in
16:19 71.8 °F 53.7 °F 29.94 in WNW 2.0 mph 2.0 mph 53 % 0.00 in
16:24 71.7 °F 54.7 °F 29.95 in NW 2.3 mph 2.3 mph 55 % 0.00 in
16:29 71.4 °F 53.9 °F 29.95 in NW 2.3 mph 2.3 mph 54 % 0.00 in
16:34 71.1 °F 54.1 °F 29.95 in NW 2.0 mph 2.0 mph 55 % 0.00 in
16:39 70.8 °F 53.8 °F 29.95 in NW 1.2 mph 1.2 mph 55 % 0.00 in
16:44 70.5 °F 53.6 °F 29.95 in NW 1.2 mph 1.2 mph 55 % 0.00 in
16:49 70.3 °F 53.9 °F 29.95 in WNW 1.2 mph 1.2 mph 56 % 0.00 in
16:54 70.0 °F 53.6 °F 29.95 in Calm     56 % 0.00 in
16:59 69.7 °F 53.3 °F 29.95 in Calm     56 % 0.00 in
17:04 69.2 °F 52.8 °F 29.95 in NW 1.2 mph   56 % 0.00 in
17:09 68.8 °F 52.5 °F 29.95 in Calm     56 % 0.00 in
17:14 68.5 °F 52.7 °F 29.95 in Calm     57 % 0.00 in
17:19 67.9 °F 52.6 °F 29.95 in Calm     58 % 0.00 in
17:24 67.4 °F 52.1 °F 29.96 in Calm     58 % 0.00 in
17:29 67.2 °F 51.9 °F 29.96 in Calm     58 % 0.00 in
17:34 67.0 °F 52.2 °F 29.96 in Calm     59 % 0.00 in
17:39 66.5 °F 52.6 °F 29.96 in Calm     61 % 0.00 in
17:44 65.6 °F 52.2 °F 29.96 in Calm     62 % 0.00 in
17:49 64.7 °F 51.8 °F 29.97 in Calm     63 % 0.00 in
17:54 64.0 °F 52.0 °F 29.97 in Calm     65 % 0.00 in
17:59 63.2 °F 52.1 °F 29.97 in Calm     67 % 0.00 in
18:04 62.4 °F 52.1 °F 29.97 in Calm     69 % 0.00 in
18:09 62.2 °F 52.3 °F 29.97 in Calm     70 % 0.00 in
18:14 61.8 °F 51.9 °F 29.97 in Calm     70 % 0.00 in
18:19 61.3 °F 51.8 °F 29.98 in Calm     71 % 0.00 in
18:24 61.0 °F 51.9 °F 29.98 in Calm     72 % 0.00 in
18:29 60.8 °F 52.1 °F 29.98 in Calm     73 % 0.00 in
18:34 60.6 °F 51.9 °F 29.98 in Calm     73 % 0.00 in
18:39 60.4 °F 52.1 °F 29.98 in Calm     74 % 0.00 in
18:44 60.0 °F 51.7 °F 29.98 in Calm     74 % 0.00 in
18:49 59.6 °F 51.7 °F 29.98 in Calm     75 % 0.00 in
18:54 58.8 °F 51.2 °F 29.98 in Calm     76 % 0.00 in
18:59 58.2 °F 51.4 °F 29.98 in Calm     78 % 0.00 in
19:04 57.8 °F 51.3 °F 29.98 in Calm     79 % 0.00 in
19:09 57.6 °F 51.5 °F 29.99 in Calm     80 % 0.00 in
19:14 57.8 °F 51.7 °F 29.99 in Calm     80 % 0.00 in
19:19 57.8 °F 51.3 °F 29.99 in Calm     79 % 0.00 in
19:24 57.7 °F 51.2 °F 29.99 in Calm     79 % 0.00 in
19:29 57.8 °F 51.3 °F 29.99 in Calm     79 % 0.00 in
19:35 57.9 °F 51.4 °F 29.99 in Calm     79 % 0.00 in
19:40 57.9 °F 51.4 °F 29.99 in Calm     79 % 0.00 in
19:45 58.1 °F 51.6 °F 29.99 in Calm     79 % 0.00 in
19:50 58.1 °F 51.6 °F 29.99 in Calm     79 % 0.00 in
19:55 58.0 °F 51.5 °F 29.99 in Calm     79 % 0.00 in
20:00 57.8 °F 51.3 °F 29.99 in Calm     79 % 0.00 in
20:05 57.6 °F 51.1 °F 30.00 in Calm     79 % 0.00 in
20:10 57.2 °F 51.1 °F 30.00 in Calm     80 % 0.00 in
20:15 56.5 °F 50.7 °F 30.00 in Calm     81 % 0.00 in
20:20 56.1 °F 50.7 °F 30.00 in Calm     82 % 0.00 in
20:25 56.1 °F 51.0 °F 30.01 in Calm     83 % 0.00 in
20:30 56.0 °F 50.9 °F 30.00 in Calm     83 % 0.00 in
20:35 56.0 °F 50.9 °F 30.00 in SE 1.2 mph   83 % 0.00 in
20:40 55.9 °F 50.8 °F 30.00 in Calm     83 % 0.00 in
20:45 55.8 °F 50.7 °F 30.00 in Calm     83 % 0.00 in
20:50 55.6 °F 50.5 °F 30.00 in SE 1.2 mph 1.2 mph 83 % 0.00 in
20:55 55.3 °F 50.5 °F 30.00 in SE 1.0 mph   84 % 0.00 in
21:00 55.4 °F 50.6 °F 30.00 in Calm     84 % 0.00 in
21:05 55.4 °F 50.6 °F 30.00 in Calm     84 % 0.00 in
21:10 55.4 °F 50.6 °F 30.00 in Calm     84 % 0.00 in
21:15 55.2 °F 50.4 °F 30.00 in SE 1.2 mph   84 % 0.00 in
21:20 54.9 °F 50.5 °F 30.00 in Calm     85 % 0.00 in
21:25 54.8 °F 50.4 °F 30.00 in Calm     85 % 0.00 in
21:30 54.6 °F 50.2 °F 30.00 in Calm     85 % 0.00 in
21:35 54.6 °F 50.5 °F 30.00 in SE 1.2 mph   86 % 0.00 in
21:40 54.7 °F 50.3 °F 30.00 in Calm     85 % 0.00 in
21:45 54.7 °F 50.3 °F 30.01 in Calm     85 % 0.00 in
21:50 54.7 °F 50.3 °F 30.01 in Calm     85 % 0.00 in
21:55 54.5 °F 50.1 °F 30.01 in Calm     85 % 0.00 in
22:00 54.2 °F 49.8 °F 30.00 in Calm     85 % 0.00 in
22:05 53.9 °F 49.8 °F 30.00 in Calm     86 % 0.00 in
22:10 53.5 °F 49.4 °F 30.00 in Calm     86 % 0.00 in
22:15 53.1 °F 49.0 °F 30.00 in Calm     86 % 0.00 in
22:20 52.8 °F 49.0 °F 30.00 in Calm     87 % 0.00 in
22:25 52.6 °F 49.1 °F 30.00 in Calm     88 % 0.00 in
22:30 52.4 °F 48.9 °F 30.00 in Calm     88 % 0.00 in
22:35 52.2 °F 49.1 °F 30.00 in Calm     89 % 0.00 in
22:40 52.1 °F 48.7 °F 30.00 in Calm     88 % 0.00 in
22:45 51.7 °F 48.3 °F 30.00 in Calm     88 % 0.00 in
22:50 51.2 °F 47.5 °F 30.00 in Calm     87 % 0.00 in
22:55 50.8 °F 47.4 °F 30.01 in Calm     88 % 0.00 in
23:00 50.6 °F 47.5 °F 30.00 in Calm     89 % 0.00 in
23:05 50.5 °F 47.4 °F 30.01 in Calm     89 % 0.00 in
23:10 50.4 °F 47.3 °F 30.01 in Calm     89 % 0.00 in
23:15 50.2 °F 47.1 °F 30.01 in Calm     89 % 0.00 in
23:20 50.1 °F 47.3 °F 30.01 in Calm     90 % 0.00 in
23:25 50.0 °F 47.2 °F 30.01 in Calm     90 % 0.00 in
23:30 50.0 °F 47.2 °F 30.01 in Calm     90 % 0.00 in
23:35 50.4 °F 47.9 °F 30.01 in Calm     91 % 0.00 in
23:40 50.9 °F 48.4 °F 30.01 in Calm     91 % 0.00 in
23:45 51.4 °F 48.6 °F 30.01 in Calm     90 % 0.00 in
23:50 51.5 °F 48.4 °F 30.01 in Calm     89 % 0.00 in
23:55 51.8 °F 48.7 °F 30.01 in Calm     89 % 0.00 in
Park Place, Exeter, Tulare County, California, USA
Compliments of Weather Underground - 2.5 mb